Albany, NY

6:04 PM EST on December 17, 2014 (GMT -0500)
North Greenbush, NY | Change Station
CLOSE
Current Station
Personal Weather Station
Location: Renssleaer, NY
Elevation: 180 ft
Nearby Weather Stations

Elev 180 ft 42.67 °N, 73.71 °W | Updated 2 minutes ago

Rain
Rain
38.0 °F
Feels Like 33 °F
N
6.0
Wind Variable Wind from WSW
Gusts 7.0 mph

Today
High -- | Low -- °F
--% Chance of Precip.
Yesterday
High -- | Low -- °F
Precip. -- in
7:19 AM 4:22 PM
Waning Crescent, 19% visible
Pressure 29.86 in
Visibility 10.0 miles
Clouds Scattered Clouds 2200 ft
Mostly Cloudy 2900 ft
Overcast 3900 ft
Windchill 33 °F
Dew Point 34 °F
Humidity 85%
Rainfall 0.00 in
Snow Depth Not available.
UV 0 out of 12
Pollen .10 out of 12
Air Quality Not available.
Flu Activity Not available.
METAR KALB 172251Z 29011KT 10SM -RA SCT022 BKN029 OVC039 03/M01 A2986 RMK AO2 SLP112 PCPN VRY LGT P0000 T00331006

More Conditions Fewer Conditions

Pressure 29.86 in
Visibility 10.0 miles
Clouds Scattered Clouds 2200 ft
Mostly Cloudy 2900 ft
Overcast 3900 ft
Windchill 33 °F
Dew Point 34 °F
Humidity 85%
Rainfall 0.00 in
Snow Depth Not available.
UV 0 out of 12
Pollen .10 out of 12
Air Quality Not available.
Flu Activity Not available.
METAR KALB 172251Z 29011KT 10SM -RA SCT022 BKN029 OVC039 03/M01 A2986 RMK AO2 SLP112 PCPN VRY LGT P0000 T00331006

More Conditions Fewer Conditions

10-Day Weather Forecast

Almanac

Astronomy

Dec. 17, 2014 Rise Set
Actual Time
Civil Twilight
Nautical Twilight
Astronomical Twilight
Moon
Length of Visible Light
Length of Day
Tomorrow will be .
, % of the Moon is Illuminated

Today's Extremes

State Highs State Lows

Community

WunderPhotos

Upload Photos

1,778,819 photos uploaded!

WunderBlogs® & News

Nearby

Air Quality

  Air Quality AQ Index Pollutant
Not available.

Snow Depth

Station Depth Elevation

Earthquake Activity

City Distance Mag. Time & Date
Minimum magnitude displayed is 2.5.

Coastal Water Temperatures

Place Temperature

Nearby Weather Stations